sensor_id;sensor_type;location;lat;lon;timestamp;temperature;humidity
51765;DHT22;37835;53.256;6.456;2024-02-26T00:03:28;3.10;99.90
51765;DHT22;37835;53.256;6.456;2024-02-26T00:05:54;3.50;99.90
51765;DHT22;37835;53.256;6.456;2024-02-26T00:08:21;3.20;99.90
51765;DHT22;37835;53.256;6.456;2024-02-26T00:10:47;3.30;99.90
51765;DHT22;37835;53.256;6.456;2024-02-26T00:18:07;2.90;99.90
51765;DHT22;37835;53.256;6.456;2024-02-26T00:20:32;2.80;99.90
51765;DHT22;37835;53.256;6.456;2024-02-26T00:22:58;2.70;99.90
51765;DHT22;37835;53.256;6.456;2024-02-26T00:25:24;3.90;99.90
51765;DHT22;37835;53.256;6.456;2024-02-26T00:27:49;3.00;99.90
51765;DHT22;37835;53.256;6.456;2024-02-26T00:30:15;3.10;99.90
51765;DHT22;37835;53.256;6.456;2024-02-26T00:32:40;3.00;99.90
51765;DHT22;37835;53.256;6.456;2024-02-26T00:35:06;2.90;99.90
51765;DHT22;37835;53.256;6.456;2024-02-26T00:37:32;2.80;99.90
51765;DHT22;37835;53.256;6.456;2024-02-26T00:39:58;2.90;99.90
51765;DHT22;37835;53.256;6.456;2024-02-26T00:42:23;3.10;99.90
51765;DHT22;37835;53.256;6.456;2024-02-26T00:44:49;2.80;99.90
51765;DHT22;37835;53.256;6.456;2024-02-26T00:49:43;2.70;99.90
51765;DHT22;37835;53.256;6.456;2024-02-26T00:52:09;2.80;99.90
51765;DHT22;37835;53.256;6.456;2024-02-26T00:54:34;3.50;99.90
51765;DHT22;37835;53.256;6.456;2024-02-26T00:57:00;3.40;99.90
51765;DHT22;37835;53.256;6.456;2024-02-26T00:59:26;2.70;99.90
51765;DHT22;37835;53.256;6.456;2024-02-26T01:01:51;2.80;99.90
51765;DHT22;37835;53.256;6.456;2024-02-26T01:04:17;3.40;99.90
51765;DHT22;37835;53.256;6.456;2024-02-26T01:06:42;2.90;99.90
51765;DHT22;37835;53.256;6.456;2024-02-26T01:09:08;3.30;99.90
51765;DHT22;37835;53.256;6.456;2024-02-26T01:11:34;3.60;99.90
51765;DHT22;37835;53.256;6.456;2024-02-26T01:14:00;2.90;99.90
51765;DHT22;37835;53.256;6.456;2024-02-26T01:16:25;3.70;99.90
51765;DHT22;37835;53.256;6.456;2024-02-26T01:18:54;3.30;99.90
51765;DHT22;37835;53.256;6.456;2024-02-26T01:21:19;3.00;99.90
51765;DHT22;37835;53.256;6.456;2024-02-26T01:23:47;3.10;99.90
51765;DHT22;37835;53.256;6.456;2024-02-26T01:26:13;3.00;99.90
51765;DHT22;37835;53.256;6.456;2024-02-26T01:28:38;3.10;99.90
51765;DHT22;37835;53.256;6.456;2024-02-26T01:31:04;3.10;99.90
51765;DHT22;37835;53.256;6.456;2024-02-26T01:33:32;3.40;99.90
51765;DHT22;37835;53.256;6.456;2024-02-26T01:38:24;3.10;99.90
51765;DHT22;37835;53.256;6.456;2024-02-26T01:40:49;3.10;99.90
51765;DHT22;37835;53.256;6.456;2024-02-26T01:43:15;3.60;99.90
51765;DHT22;37835;53.256;6.456;2024-02-26T01:45:40;3.00;99.90
51765;DHT22;37835;53.256;6.456;2024-02-26T01:48:09;3.10;99.90
51765;DHT22;37835;53.256;6.456;2024-02-26T01:50:36;3.10;99.90
51765;DHT22;37835;53.256;6.456;2024-02-26T01:55:30;3.10;99.90
51765;DHT22;37835;53.256;6.456;2024-02-26T01:57:56;3.00;99.90
51765;DHT22;37835;53.256;6.456;2024-02-26T02:00:22;3.10;99.90
51765;DHT22;37835;53.256;6.456;2024-02-26T02:02:49;3.40;99.90
51765;DHT22;37835;53.256;6.456;2024-02-26T02:05:20;3.60;99.90
51765;DHT22;37835;53.256;6.456;2024-02-26T02:12:43;3.10;99.90
51765;DHT22;37835;53.256;6.456;2024-02-26T02:15:09;3.60;99.90
51765;DHT22;37835;53.256;6.456;2024-02-26T02:17:35;3.00;99.90
51765;DHT22;37835;53.256;6.456;2024-02-26T02:20:01;3.40;99.90
51765;DHT22;37835;53.256;6.456;2024-02-26T02:22:27;3.00;99.90
51765;DHT22;37835;53.256;6.456;2024-02-26T02:24:53;3.00;99.90
51765;DHT22;37835;53.256;6.456;2024-02-26T02:29:47;3.10;99.90
51765;DHT22;37835;53.256;6.456;2024-02-26T02:32:14;3.30;99.90
51765;DHT22;37835;53.256;6.456;2024-02-26T02:34:40;3.00;99.90
51765;DHT22;37835;53.256;6.456;2024-02-26T02:37:06;2.80;99.90
51765;DHT22;37835;53.256;6.456;2024-02-26T02:39:32;3.50;99.90
51765;DHT22;37835;53.256;6.456;2024-02-26T02:44:23;3.10;99.90
51765;DHT22;37835;53.256;6.456;2024-02-26T02:51:45;3.00;99.90
51765;DHT22;37835;53.256;6.456;2024-02-26T02:54:11;3.00;99.90
51765;DHT22;37835;53.256;6.456;2024-02-26T02:59:03;3.10;99.90
51765;DHT22;37835;53.256;6.456;2024-02-26T03:01:29;3.70;99.90
51765;DHT22;37835;53.256;6.456;2024-02-26T03:03:54;3.60;99.90
51765;DHT22;37835;53.256;6.456;2024-02-26T03:06:22;3.00;99.90
51765;DHT22;37835;53.256;6.456;2024-02-26T03:08:48;3.00;99.90
51765;DHT22;37835;53.256;6.456;2024-02-26T03:16:08;3.00;99.90
51765;DHT22;37835;53.256;6.456;2024-02-26T03:28:24;2.90;99.90
51765;DHT22;37835;53.256;6.456;2024-02-26T03:30:50;3.20;99.90
51765;DHT22;37835;53.256;6.456;2024-02-26T03:33:15;3.00;99.90
51765;DHT22;37835;53.256;6.456;2024-02-26T03:35:41;3.40;99.90
51765;DHT22;37835;53.256;6.456;2024-02-26T03:38:07;3.30;99.90
51765;DHT22;37835;53.256;6.456;2024-02-26T03:40:32;3.20;99.90
51765;DHT22;37835;53.256;6.456;2024-02-26T03:42:58;3.40;99.90
51765;DHT22;37835;53.256;6.456;2024-02-26T03:45:24;3.20;99.90
51765;DHT22;37835;53.256;6.456;2024-02-26T03:47:51;2.70;99.90
51765;DHT22;37835;53.256;6.456;2024-02-26T03:57:39;2.90;99.90
51765;DHT22;37835;53.256;6.456;2024-02-26T04:00:05;2.80;99.90
51765;DHT22;37835;53.256;6.456;2024-02-26T04:02:31;2.90;99.90
51765;DHT22;37835;53.256;6.456;2024-02-26T04:04:57;2.80;99.90
51765;DHT22;37835;53.256;6.456;2024-02-26T04:07:24;3.20;99.90
51765;DHT22;37835;53.256;6.456;2024-02-26T04:09:50;3.50;99.90
51765;DHT22;37835;53.256;6.456;2024-02-26T04:12:15;3.60;99.90
51765;DHT22;37835;53.256;6.456;2024-02-26T04:14:41;3.40;99.90
51765;DHT22;37835;53.256;6.456;2024-02-26T04:36:40;2.80;99.90
51765;DHT22;37835;53.256;6.456;2024-02-26T04:39:06;3.10;99.90
51765;DHT22;37835;53.256;6.456;2024-02-26T04:41:32;3.60;99.90
51765;DHT22;37835;53.256;6.456;2024-02-26T04:43:58;3.40;99.90
51765;DHT22;37835;53.256;6.456;2024-02-26T04:46:23;3.20;99.90
51765;DHT22;37835;53.256;6.456;2024-02-26T04:48:49;3.20;99.90
51765;DHT22;37835;53.256;6.456;2024-02-26T04:51:15;3.80;99.90
51765;DHT22;37835;53.256;6.456;2024-02-26T04:53:41;3.00;99.90
51765;DHT22;37835;53.256;6.456;2024-02-26T04:56:07;3.30;99.90
51765;DHT22;37835;53.256;6.456;2024-02-26T04:58:33;3.40;99.90
51765;DHT22;37835;53.256;6.456;2024-02-26T05:00:58;3.00;99.90
51765;DHT22;37835;53.256;6.456;2024-02-26T05:03:24;3.00;99.90
51765;DHT22;37835;53.256;6.456;2024-02-26T05:05:50;3.30;99.90
51765;DHT22;37835;53.256;6.456;2024-02-26T05:08:15;3.40;99.90
51765;DHT22;37835;53.256;6.456;2024-02-26T05:10:41;3.60;99.90
51765;DHT22;37835;53.256;6.456;2024-02-26T05:13:08;3.70;99.90
51765;DHT22;37835;53.256;6.456;2024-02-26T05:15:35;3.30;99.90
51765;DHT22;37835;53.256;6.456;2024-02-26T05:18:01;3.60;99.90
51765;DHT22;37835;53.256;6.456;2024-02-26T05:20:27;3.70;99.90
51765;DHT22;37835;53.256;6.456;2024-02-26T05:22:52;3.10;99.90
51765;DHT22;37835;53.256;6.456;2024-02-26T05:25:18;3.10;99.90
51765;DHT22;37835;53.256;6.456;2024-02-26T05:27:44;3.80;99.90
51765;DHT22;37835;53.256;6.456;2024-02-26T05:30:10;3.10;99.90
51765;DHT22;37835;53.256;6.456;2024-02-26T05:35:03;3.10;99.90
51765;DHT22;37835;53.256;6.456;2024-02-26T05:44:56;3.00;99.90
51765;DHT22;37835;53.256;6.456;2024-02-26T05:47:21;3.70;99.90
51765;DHT22;37835;53.256;6.456;2024-02-26T05:59:32;3.30;99.90
51765;DHT22;37835;53.256;6.456;2024-02-26T06:01:58;4.00;99.90
51765;DHT22;37835;53.256;6.456;2024-02-26T06:04:24;3.20;99.90
51765;DHT22;37835;53.256;6.456;2024-02-26T06:31:14;3.30;99.90
51765;DHT22;37835;53.256;6.456;2024-02-26T06:33:39;3.30;99.90
51765;DHT22;37835;53.256;6.456;2024-02-26T06:36:05;3.30;99.90
51765;DHT22;37835;53.256;6.456;2024-02-26T06:38:31;3.30;99.90
51765;DHT22;37835;53.256;6.456;2024-02-26T06:40:57;3.30;99.90
51765;DHT22;37835;53.256;6.456;2024-02-26T06:43:23;3.90;99.90
51765;DHT22;37835;53.256;6.456;2024-02-26T06:45:48;3.80;99.90
51765;DHT22;37835;53.256;6.456;2024-02-26T06:48:14;3.40;99.90
51765;DHT22;37835;53.256;6.456;2024-02-26T06:50:39;3.40;99.90
51765;DHT22;37835;53.256;6.456;2024-02-26T06:53:06;3.40;99.90
51765;DHT22;37835;53.256;6.456;2024-02-26T06:55:32;3.40;99.90
51765;DHT22;37835;53.256;6.456;2024-02-26T09:08:45;4.30;99.90
51765;DHT22;37835;53.256;6.456;2024-02-26T09:11:11;4.40;99.90
51765;DHT22;37835;53.256;6.456;2024-02-26T09:35:37;4.90;99.90
51765;DHT22;37835;53.256;6.456;2024-02-26T09:40:29;4.80;99.90
51765;DHT22;37835;53.256;6.456;2024-02-26T09:42:59;5.20;99.90
51765;DHT22;37835;53.256;6.456;2024-02-26T09:45:28;5.10;99.90
51765;DHT22;37835;53.256;6.456;2024-02-26T09:47:55;5.30;99.90
51765;DHT22;37835;53.256;6.456;2024-02-26T09:50:22;4.90;99.90
51765;DHT22;37835;53.256;6.456;2024-02-26T09:52:49;5.00;99.90
51765;DHT22;37835;53.256;6.456;2024-02-26T09:55:15;5.40;99.90
51765;DHT22;37835;53.256;6.456;2024-02-26T12:43:15;5.80;99.90
51765;DHT22;37835;53.256;6.456;2024-02-26T12:45:41;5.90;99.90
51765;DHT22;37835;53.256;6.456;2024-02-26T12:48:07;5.80;99.90
51765;DHT22;37835;53.256;6.456;2024-02-26T12:50:33;5.70;99.90
51765;DHT22;37835;53.256;6.456;2024-02-26T12:53:00;5.70;99.90
51765;DHT22;37835;53.256;6.456;2024-02-26T12:55:26;5.70;99.90
51765;DHT22;37835;53.256;6.456;2024-02-26T12:57:52;5.80;99.90
51765;DHT22;37835;53.256;6.456;2024-02-26T13:00:27;5.70;99.90
51765;DHT22;37835;53.256;6.456;2024-02-26T13:02:54;5.60;99.90
51765;DHT22;37835;53.256;6.456;2024-02-26T13:05:21;5.50;99.90
51765;DHT22;37835;53.256;6.456;2024-02-26T13:07:48;5.70;99.90
51765;DHT22;37835;53.256;6.456;2024-02-26T13:10:14;5.70;99.90
51765;DHT22;37835;53.256;6.456;2024-02-26T13:12:47;5.70;99.90
51765;DHT22;37835;53.256;6.456;2024-02-26T13:15:17;5.70;99.90
51765;DHT22;37835;53.256;6.456;2024-02-26T13:17:47;5.70;99.90
51765;DHT22;37835;53.256;6.456;2024-02-26T13:20:24;5.70;99.90
51765;DHT22;37835;53.256;6.456;2024-02-26T13:22:50;5.70;99.90
51765;DHT22;37835;53.256;6.456;2024-02-26T13:25:20;5.70;99.90
51765;DHT22;37835;53.256;6.456;2024-02-26T13:27:46;5.80;99.90
51765;DHT22;37835;53.256;6.456;2024-02-26T13:30:12;5.80;99.90
51765;DHT22;37835;53.256;6.456;2024-02-26T13:32:40;5.70;99.90
51765;DHT22;37835;53.256;6.456;2024-02-26T13:35:07;6.10;99.90
51765;DHT22;37835;53.256;6.456;2024-02-26T13:37:37;5.70;99.90
51765;DHT22;37835;53.256;6.456;2024-02-26T13:40:09;5.60;99.90
51765;DHT22;37835;53.256;6.456;2024-02-26T13:42:39;5.60;99.90
51765;DHT22;37835;53.256;6.456;2024-02-26T13:45:05;5.70;99.90
51765;DHT22;37835;53.256;6.456;2024-02-26T13:47:34;5.70;99.90
51765;DHT22;37835;53.256;6.456;2024-02-26T13:50:01;5.60;99.90
51765;DHT22;37835;53.256;6.456;2024-02-26T13:52:27;5.60;99.90
51765;DHT22;37835;53.256;6.456;2024-02-26T13:54:52;5.70;99.90
51765;DHT22;37835;53.256;6.456;2024-02-26T13:57:19;5.60;99.90
51765;DHT22;37835;53.256;6.456;2024-02-26T13:59:45;5.60;99.90
51765;DHT22;37835;53.256;6.456;2024-02-26T14:02:11;5.50;99.90
51765;DHT22;37835;53.256;6.456;2024-02-26T14:04:37;5.50;99.90
51765;DHT22;37835;53.256;6.456;2024-02-26T14:09:30;5.60;99.90
51765;DHT22;37835;53.256;6.456;2024-02-26T14:11:58;5.50;99.90
51765;DHT22;37835;53.256;6.456;2024-02-26T14:14:24;5.80;99.90
51765;DHT22;37835;53.256;6.456;2024-02-26T14:16:51;5.60;99.90
51765;DHT22;37835;53.256;6.456;2024-02-26T14:19:17;5.60;99.90
51765;DHT22;37835;53.256;6.456;2024-02-26T14:21:42;5.50;99.90
51765;DHT22;37835;53.256;6.456;2024-02-26T14:24:08;5.50;99.90
51765;DHT22;37835;53.256;6.456;2024-02-26T14:26:34;5.50;99.90
51765;DHT22;37835;53.256;6.456;2024-02-26T14:29:00;5.50;99.90
51765;DHT22;37835;53.256;6.456;2024-02-26T14:31:25;5.40;99.90
51765;DHT22;37835;53.256;6.456;2024-02-26T14:33:51;5.50;99.90
51765;DHT22;37835;53.256;6.456;2024-02-26T14:36:20;5.50;99.90
51765;DHT22;37835;53.256;6.456;2024-02-26T14:38:47;5.50;99.90
51765;DHT22;37835;53.256;6.456;2024-02-26T14:41:12;5.50;99.90
51765;DHT22;37835;53.256;6.456;2024-02-26T14:43:38;5.50;99.90
51765;DHT22;37835;53.256;6.456;2024-02-26T14:46:04;5.50;99.90
51765;DHT22;37835;53.256;6.456;2024-02-26T14:48:30;5.60;99.90
51765;DHT22;37835;53.256;6.456;2024-02-26T14:50:57;5.30;99.90
51765;DHT22;37835;53.256;6.456;2024-02-26T14:53:23;5.80;99.90
51765;DHT22;37835;53.256;6.456;2024-02-26T14:55:49;5.50;99.90
51765;DHT22;37835;53.256;6.456;2024-02-26T14:58:15;5.40;99.90
51765;DHT22;37835;53.256;6.456;2024-02-26T15:00:41;5.30;99.90
51765;DHT22;37835;53.256;6.456;2024-02-26T15:03:06;5.50;99.90
51765;DHT22;37835;53.256;6.456;2024-02-26T15:05:33;5.50;99.90
51765;DHT22;37835;53.256;6.456;2024-02-26T15:07:58;5.50;99.90
51765;DHT22;37835;53.256;6.456;2024-02-26T15:10:25;5.40;99.90
51765;DHT22;37835;53.256;6.456;2024-02-26T15:12:51;5.50;99.90
51765;DHT22;37835;53.256;6.456;2024-02-26T15:15:20;5.40;99.90
51765;DHT22;37835;53.256;6.456;2024-02-26T15:17:47;5.40;99.90
51765;DHT22;37835;53.256;6.456;2024-02-26T15:20:14;5.50;99.90
51765;DHT22;37835;53.256;6.456;2024-02-26T15:22:40;5.40;99.90
51765;DHT22;37835;53.256;6.456;2024-02-26T15:25:07;5.40;99.90
51765;DHT22;37835;53.256;6.456;2024-02-26T15:27:33;5.00;99.90
51765;DHT22;37835;53.256;6.456;2024-02-26T15:30:00;5.40;99.90
51765;DHT22;37835;53.256;6.456;2024-02-26T15:32:26;5.50;99.90
51765;DHT22;37835;53.256;6.456;2024-02-26T15:34:53;5.30;99.90
51765;DHT22;37835;53.256;6.456;2024-02-26T15:37:19;5.30;99.90
51765;DHT22;37835;53.256;6.456;2024-02-26T15:39:47;5.30;99.90
51765;DHT22;37835;53.256;6.456;2024-02-26T15:42:13;5.30;99.90
51765;DHT22;37835;53.256;6.456;2024-02-26T15:44:39;5.30;99.90
51765;DHT22;37835;53.256;6.456;2024-02-26T15:47:05;5.50;99.90
51765;DHT22;37835;53.256;6.456;2024-02-26T15:49:31;5.20;99.90
51765;DHT22;37835;53.256;6.456;2024-02-26T15:51:57;5.30;99.90
51765;DHT22;37835;53.256;6.456;2024-02-26T15:54:23;5.30;99.90
51765;DHT22;37835;53.256;6.456;2024-02-26T15:56:49;5.30;99.90
51765;DHT22;37835;53.256;6.456;2024-02-26T15:59:14;5.30;99.90
51765;DHT22;37835;53.256;6.456;2024-02-26T16:01:40;5.30;99.90
51765;DHT22;37835;53.256;6.456;2024-02-26T16:04:06;5.30;99.90
51765;DHT22;37835;53.256;6.456;2024-02-26T16:06:36;5.20;99.90
51765;DHT22;37835;53.256;6.456;2024-02-26T16:09:03;5.70;99.90
51765;DHT22;37835;53.256;6.456;2024-02-26T16:11:28;5.20;99.90
51765;DHT22;37835;53.256;6.456;2024-02-26T16:16:47;5.20;99.90
51765;DHT22;37835;53.256;6.456;2024-02-26T16:19:15;5.10;99.90
51765;DHT22;37835;53.256;6.456;2024-02-26T16:21:42;5.10;99.90
51765;DHT22;37835;53.256;6.456;2024-02-26T16:24:08;5.10;99.90
51765;DHT22;37835;53.256;6.456;2024-02-26T16:26:34;5.10;99.90
51765;DHT22;37835;53.256;6.456;2024-02-26T16:31:26;5.10;99.90
51765;DHT22;37835;53.256;6.456;2024-02-26T16:33:54;5.10;99.90
51765;DHT22;37835;53.256;6.456;2024-02-26T16:36:20;5.10;99.90
51765;DHT22;37835;53.256;6.456;2024-02-26T16:41:12;5.10;99.90
51765;DHT22;37835;53.256;6.456;2024-02-26T16:46:05;5.10;99.90
51765;DHT22;37835;53.256;6.456;2024-02-26T16:51:01;5.20;99.90
51765;DHT22;37835;53.256;6.456;2024-02-26T16:55:54;5.00;99.90
51765;DHT22;37835;53.256;6.456;2024-02-26T16:58:20;5.00;99.90
51765;DHT22;37835;53.256;6.456;2024-02-26T17:00:49;5.00;99.90
51765;DHT22;37835;53.256;6.456;2024-02-26T17:03:15;5.00;99.90
51765;DHT22;37835;53.256;6.456;2024-02-26T17:05:42;5.00;99.90
51765;DHT22;37835;53.256;6.456;2024-02-26T17:08:08;5.10;99.90
51765;DHT22;37835;53.256;6.456;2024-02-26T17:10:36;5.00;99.90
51765;DHT22;37835;53.256;6.456;2024-02-26T17:13:02;5.00;99.90
51765;DHT22;37835;53.256;6.456;2024-02-26T17:15:27;4.90;99.90
51765;DHT22;37835;53.256;6.456;2024-02-26T17:17:53;4.90;99.90
51765;DHT22;37835;53.256;6.456;2024-02-26T17:20:18;4.90;99.90
51765;DHT22;37835;53.256;6.456;2024-02-26T17:22:45;4.90;99.90
51765;DHT22;37835;53.256;6.456;2024-02-26T17:35:00;4.90;99.90
51765;DHT22;37835;53.256;6.456;2024-02-26T17:37:25;4.70;99.90
51765;DHT22;37835;53.256;6.456;2024-02-26T17:39:51;4.70;99.90
51765;DHT22;37835;53.256;6.456;2024-02-26T17:42:17;5.30;99.90
51765;DHT22;37835;53.256;6.456;2024-02-26T17:44:42;4.80;99.90
51765;DHT22;37835;53.256;6.456;2024-02-26T17:47:08;5.20;99.90
51765;DHT22;37835;53.256;6.456;2024-02-26T17:49:34;5.40;99.90
51765;DHT22;37835;53.256;6.456;2024-02-26T17:52:00;4.70;99.90
51765;DHT22;37835;53.256;6.456;2024-02-26T17:54:26;5.00;99.90
51765;DHT22;37835;53.256;6.456;2024-02-26T17:56:53;5.00;99.90
51765;DHT22;37835;53.256;6.456;2024-02-26T17:59:20;5.00;99.90
51765;DHT22;37835;53.256;6.456;2024-02-26T18:01:46;4.60;99.90
51765;DHT22;37835;53.256;6.456;2024-02-26T18:04:12;4.60;99.90
51765;DHT22;37835;53.256;6.456;2024-02-26T18:06:38;5.00;99.90
51765;DHT22;37835;53.256;6.456;2024-02-26T18:09:04;4.80;99.90
51765;DHT22;37835;53.256;6.456;2024-02-26T18:11:32;5.20;99.90
51765;DHT22;37835;53.256;6.456;2024-02-26T18:13:59;5.20;99.90
51765;DHT22;37835;53.256;6.456;2024-02-26T18:16:25;5.20;99.90
51765;DHT22;37835;53.256;6.456;2024-02-26T18:18:51;4.90;99.90
51765;DHT22;37835;53.256;6.456;2024-02-26T18:21:16;5.10;99.90
51765;DHT22;37835;53.256;6.456;2024-02-26T18:23:43;5.00;99.90
51765;DHT22;37835;53.256;6.456;2024-02-26T18:26:09;4.90;99.90
51765;DHT22;37835;53.256;6.456;2024-02-26T18:28:35;5.00;99.90
51765;DHT22;37835;53.256;6.456;2024-02-26T18:31:01;4.70;99.90
51765;DHT22;37835;53.256;6.456;2024-02-26T18:33:26;5.20;99.90
51765;DHT22;37835;53.256;6.456;2024-02-26T18:35:52;5.00;99.90
51765;DHT22;37835;53.256;6.456;2024-02-26T18:38:17;5.00;99.90
51765;DHT22;37835;53.256;6.456;2024-02-26T18:40:43;4.80;99.90
51765;DHT22;37835;53.256;6.456;2024-02-26T18:43:09;4.40;99.90
51765;DHT22;37835;53.256;6.456;2024-02-26T18:45:34;5.00;99.90
51765;DHT22;37835;53.256;6.456;2024-02-26T18:48:00;4.70;99.90
51765;DHT22;37835;53.256;6.456;2024-02-26T18:50:26;4.60;99.90
51765;DHT22;37835;53.256;6.456;2024-02-26T18:52:52;4.90;99.90
51765;DHT22;37835;53.256;6.456;2024-02-26T18:55:18;4.80;99.90
51765;DHT22;37835;53.256;6.456;2024-02-26T18:57:43;4.70;99.90
51765;DHT22;37835;53.256;6.456;2024-02-26T19:00:09;4.60;99.90
51765;DHT22;37835;53.256;6.456;2024-02-26T19:02:35;4.30;99.90
51765;DHT22;37835;53.256;6.456;2024-02-26T19:05:01;4.70;99.90
51765;DHT22;37835;53.256;6.456;2024-02-26T19:07:26;4.10;99.90
51765;DHT22;37835;53.256;6.456;2024-02-26T19:09:52;4.50;99.90
51765;DHT22;37835;53.256;6.456;2024-02-26T19:12:19;4.50;99.90
51765;DHT22;37835;53.256;6.456;2024-02-26T19:14:46;5.00;99.90
51765;DHT22;37835;53.256;6.456;2024-02-26T19:17:12;4.50;99.90
51765;DHT22;37835;53.256;6.456;2024-02-26T19:19:37;4.50;99.90
51765;DHT22;37835;53.256;6.456;2024-02-26T19:22:05;4.70;99.90
51765;DHT22;37835;53.256;6.456;2024-02-26T19:24:33;4.10;99.90
51765;DHT22;37835;53.256;6.456;2024-02-26T19:26:59;4.00;99.90
51765;DHT22;37835;53.256;6.456;2024-02-26T19:29:25;4.80;99.90
51765;DHT22;37835;53.256;6.456;2024-02-26T19:31:51;4.00;99.90
51765;DHT22;37835;53.256;6.456;2024-02-26T19:34:16;4.00;99.90
51765;DHT22;37835;53.256;6.456;2024-02-26T19:36:42;4.00;99.90
51765;DHT22;37835;53.256;6.456;2024-02-26T21:51:42;3.70;99.90
51765;DHT22;37835;53.256;6.456;2024-02-26T21:54:09;4.20;99.90
51765;DHT22;37835;53.256;6.456;2024-02-26T21:56:34;4.10;99.90
51765;DHT22;37835;53.256;6.456;2024-02-26T21:59:00;4.10;99.90
51765;DHT22;37835;53.256;6.456;2024-02-26T22:01:26;3.80;99.90
51765;DHT22;37835;53.256;6.456;2024-02-26T22:03:51;4.30;99.90
51765;DHT22;37835;53.256;6.456;2024-02-26T22:06:17;3.90;99.90
51765;DHT22;37835;53.256;6.456;2024-02-26T22:08:42;3.80;99.90
51765;DHT22;37835;53.256;6.456;2024-02-26T22:11:08;3.70;99.90
51765;DHT22;37835;53.256;6.456;2024-02-26T22:13:34;3.70;99.90
51765;DHT22;37835;53.256;6.456;2024-02-26T22:16:00;3.10;99.90
51765;DHT22;37835;53.256;6.456;2024-02-26T22:18:25;3.80;99.90
51765;DHT22;37835;53.256;6.456;2024-02-26T22:20:51;4.20;99.90
51765;DHT22;37835;53.256;6.456;2024-02-26T22:23:16;3.70;99.90
51765;DHT22;37835;53.256;6.456;2024-02-26T22:25:42;3.60;99.90
51765;DHT22;37835;53.256;6.456;2024-02-26T22:28:08;3.70;99.90
51765;DHT22;37835;53.256;6.456;2024-02-26T23:09:36;3.00;99.90
51765;DHT22;37835;53.256;6.456;2024-02-26T23:12:02;3.50;99.90
51765;DHT22;37835;53.256;6.456;2024-02-26T23:14:28;3.10;99.90
51765;DHT22;37835;53.256;6.456;2024-02-26T23:16:53;3.40;99.90
51765;DHT22;37835;53.256;6.456;2024-02-26T23:19:19;3.20;99.90
51765;DHT22;37835;53.256;6.456;2024-02-26T23:21:44;2.90;99.90
51765;DHT22;37835;53.256;6.456;2024-02-26T23:24:10;3.30;99.90
51765;DHT22;37835;53.256;6.456;2024-02-26T23:26:36;3.70;99.90
51765;DHT22;37835;53.256;6.456;2024-02-26T23:29:01;3.20;99.90
51765;DHT22;37835;53.256;6.456;2024-02-26T23:31:27;3.10;99.90
51765;DHT22;37835;53.256;6.456;2024-02-26T23:33:53;3.40;99.90
51765;DHT22;37835;53.256;6.456;2024-02-26T23:36:20;2.60;99.90
51765;DHT22;37835;53.256;6.456;2024-02-26T23:38:45;2.60;99.90
51765;DHT22;37835;53.256;6.456;2024-02-26T23:41:11;3.00;99.90
51765;DHT22;37835;53.256;6.456;2024-02-26T23:43:37;2.60;99.90
51765;DHT22;37835;53.256;6.456;2024-02-26T23:46:02;2.60;99.90
51765;DHT22;37835;53.256;6.456;2024-02-26T23:48:28;2.50;99.90
51765;DHT22;37835;53.256;6.456;2024-02-26T23:50:54;1.50;99.90
51765;DHT22;37835;53.256;6.456;2024-02-26T23:53:19;2.50;99.90
51765;DHT22;37835;53.256;6.456;2024-02-26T23:55:45;2.40;99.90
51765;DHT22;37835;53.256;6.456;2024-02-26T23:58:11;3.70;99.90
